createdAt,value
2023-12-18T00:04:28.283Z,66.48
2023-12-18T00:09:30.663Z,66.28
2023-12-18T00:14:32.898Z,66.13
2023-12-18T00:19:35.229Z,66.04
2023-12-18T00:24:37.420Z,66.11
2023-12-18T00:29:40.927Z,66.38
2023-12-18T00:34:43.323Z,66.34
2023-12-18T00:39:45.581Z,66.52
2023-12-18T00:44:47.738Z,66.70
2023-12-18T00:49:50.202Z,66.51
2023-12-18T00:54:52.476Z,66.00
2023-12-18T00:59:54.639Z,66.47
2023-12-18T01:04:56.888Z,66.03
2023-12-18T01:10:00.071Z,65.75
2023-12-18T01:15:02.443Z,65.84
2023-12-18T01:20:08.764Z,65.79
2023-12-18T01:25:11.192Z,65.86
2023-12-18T01:30:14.062Z,66.41
2023-12-18T01:35:16.474Z,65.53
2023-12-18T01:40:19.410Z,66.09
2023-12-18T01:45:21.576Z,65.55
2023-12-18T01:50:23.952Z,65.69
2023-12-18T01:55:26.332Z,65.47
2023-12-18T02:00:28.954Z,65.14
2023-12-18T02:05:31.333Z,65.29
2023-12-18T02:10:34.841Z,65.51
2023-12-18T02:15:37.280Z,65.95
2023-12-18T02:20:43.183Z,66.23
2023-12-18T02:25:45.597Z,66.08
2023-12-18T02:30:47.918Z,66.28
2023-12-18T02:35:50.219Z,66.68
2023-12-18T02:40:52.529Z,66.78
2023-12-18T02:45:54.773Z,66.78
2023-12-18T02:50:57.055Z,67.08
2023-12-18T02:55:59.319Z,66.95
2023-12-18T03:01:01.615Z,67.03
2023-12-18T03:06:04.082Z,67.07
2023-12-18T03:11:06.266Z,67.32
2023-12-18T03:16:09.424Z,66.97
2023-12-18T03:21:12.036Z,67.52
2023-12-18T03:26:14.461Z,67.25
2023-12-18T03:31:17.091Z,67.58
2023-12-18T03:36:19.373Z,67.90
2023-12-18T03:41:21.693Z,67.95
2023-12-18T03:46:24.351Z,68.34
2023-12-18T03:51:26.754Z,68.23
2023-12-18T03:56:29.074Z,68.23
2023-12-18T04:01:35.902Z,68.66
2023-12-18T04:06:38.178Z,68.74
2023-12-18T04:11:40.390Z,68.02
2023-12-18T04:16:42.742Z,68.47
2023-12-18T04:21:45.031Z,68.72
2023-12-18T04:26:48.227Z,68.88
2023-12-18T04:31:53.379Z,69.38
2023-12-18T04:36:55.767Z,69.03
2023-12-18T04:41:58.074Z,69.17
2023-12-18T04:47:00.281Z,69.27
2023-12-18T04:52:02.560Z,69.29
2023-12-18T04:57:05.229Z,69.38
2023-12-18T05:02:07.430Z,69.50
2023-12-18T05:07:12.366Z,69.72
2023-12-18T05:12:14.650Z,69.16
2023-12-18T05:17:16.961Z,69.55
2023-12-18T05:22:19.281Z,69.40
2023-12-18T05:27:21.696Z,69.06
2023-12-18T05:32:24.239Z,69.47
2023-12-18T05:37:26.705Z,69.04
2023-12-18T05:42:29.067Z,69.61
2023-12-18T05:47:31.242Z,69.15
2023-12-18T05:52:33.504Z,69.49
2023-12-18T05:57:35.749Z,69.59
2023-12-18T06:02:38.413Z,69.62
2023-12-18T06:07:42.326Z,69.51
2023-12-18T06:12:44.827Z,69.38
2023-12-18T06:17:47.339Z,69.67
2023-12-18T06:22:49.652Z,69.20
2023-12-18T06:27:51.930Z,69.50
2023-12-18T06:32:54.244Z,69.29
2023-12-18T06:37:56.571Z,69.21
2023-12-18T06:42:58.738Z,69.49
2023-12-18T06:48:01.209Z,69.23
2023-12-18T06:53:03.585Z,69.41
2023-12-18T06:58:05.899Z,69.24
2023-12-18T07:03:08.368Z,68.82
2023-12-18T07:08:10.853Z,69.47
2023-12-18T07:13:13.353Z,69.03
2023-12-18T07:18:15.835Z,68.57
2023-12-18T07:23:18.309Z,69.08
2023-12-18T07:28:21.024Z,68.78
2023-12-18T07:33:23.339Z,68.52
2023-12-18T07:38:25.661Z,69.09
2023-12-18T07:43:28.066Z,68.27
2023-12-18T07:48:33.539Z,68.17
2023-12-18T07:53:35.879Z,68.34
2023-12-18T07:58:38.070Z,68.34
2023-12-18T08:03:40.430Z,68.21
2023-12-18T08:08:43.504Z,68.58
2023-12-18T08:13:47.481Z,68.55
2023-12-18T08:18:50.384Z,68.71
2023-12-18T08:23:52.712Z,68.43
2023-12-18T08:28:54.997Z,68.34
2023-12-18T08:33:57.703Z,68.87
2023-12-18T08:39:00.100Z,68.33
2023-12-18T08:44:05.718Z,68.14
2023-12-18T08:49:09.244Z,68.16
2023-12-18T08:54:11.537Z,68.50
2023-12-18T08:59:13.783Z,68.41
2023-12-18T09:04:16.080Z,67.99
2023-12-18T09:09:18.356Z,68.88
2023-12-18T09:14:21.023Z,68.33
2023-12-18T09:19:23.226Z,68.46
2023-12-18T09:24:27.097Z,68.41
2023-12-18T09:29:29.375Z,68.69
2023-12-18T09:34:31.778Z,68.83
2023-12-18T09:39:34.092Z,69.30
2023-12-18T09:44:36.381Z,69.60
2023-12-18T09:49:38.857Z,69.32
2023-12-18T09:54:44.199Z,69.84
2023-12-18T09:59:47.093Z,69.95
2023-12-18T10:04:49.431Z,70.16
2023-12-18T10:09:51.696Z,70.19
2023-12-18T10:14:53.884Z,70.27
2023-12-18T10:19:56.213Z,69.83
2023-12-18T10:25:00.465Z,70.40
2023-12-18T10:30:02.647Z,70.58
2023-12-18T10:35:07.201Z,70.66
2023-12-18T10:40:13.221Z,71.41
2023-12-18T10:45:16.004Z,71.27
2023-12-18T10:50:19.669Z,71.11
2023-12-18T10:55:22.523Z,71.27
2023-12-18T11:00:25.183Z,71.15
2023-12-18T11:05:28.077Z,71.24
2023-12-18T11:10:30.837Z,71.77
2023-12-18T11:15:52.119Z,71.96
2023-12-18T11:20:54.919Z,71.66
2023-12-18T11:25:58.383Z,71.70
2023-12-18T11:31:02.689Z,71.96
2023-12-18T11:36:06.942Z,71.49
2023-12-18T11:41:58.173Z,71.33
2023-12-18T11:47:00.557Z,71.50
2023-12-18T11:52:18.734Z,71.55
2023-12-18T11:57:22.672Z,71.53
2023-12-18T12:02:25.598Z,71.62
2023-12-18T12:07:27.821Z,71.29
2023-12-18T12:12:31.612Z,71.14
2023-12-18T12:17:34.916Z,71.24
2023-12-18T12:22:37.167Z,70.99
2023-12-18T12:27:39.790Z,70.83
2023-12-18T12:32:42.278Z,70.92
2023-12-18T12:37:45.354Z,70.77
2023-12-18T12:42:48.772Z,70.82
2023-12-18T12:47:51.234Z,70.74
2023-12-18T12:52:53.424Z,70.73
2023-12-18T12:57:55.819Z,70.53
2023-12-18T13:02:58.141Z,70.49
2023-12-18T13:08:01.756Z,70.45
2023-12-18T13:13:04.338Z,70.62
2023-12-18T13:18:06.859Z,70.18
2023-12-18T13:23:09.121Z,70.29
2023-12-18T13:28:11.487Z,69.80
2023-12-18T13:33:13.979Z,69.39
2023-12-18T13:38:16.760Z,69.36
2023-12-18T13:43:19.007Z,69.37
2023-12-18T13:48:21.656Z,69.15
2023-12-18T13:53:24.123Z,68.92
2023-12-18T13:58:26.334Z,69.30
2023-12-18T14:03:28.789Z,69.15
2023-12-18T14:08:31.939Z,68.78
2023-12-18T14:13:34.121Z,69.18
2023-12-18T14:18:36.582Z,68.98
2023-12-18T14:23:38.835Z,69.36
2023-12-18T14:28:41.160Z,68.97
2023-12-18T14:33:43.508Z,68.73
2023-12-18T14:38:45.967Z,68.95
2023-12-18T14:43:48.248Z,68.65
2023-12-18T14:48:50.650Z,68.09
2023-12-18T14:53:53.092Z,68.32
2023-12-18T14:58:55.427Z,68.27
2023-12-18T15:03:57.692Z,68.34
2023-12-18T15:08:59.992Z,67.22
2023-12-18T15:14:02.362Z,67.07
2023-12-18T15:19:05.291Z,67.06
2023-12-18T15:24:10.083Z,67.19
2023-12-18T15:29:13.323Z,67.69
2023-12-18T15:34:15.716Z,67.57
2023-12-18T15:39:18.734Z,67.91
2023-12-18T15:44:22.628Z,66.96
2023-12-18T15:49:27.704Z,67.19
2023-12-18T15:54:30.427Z,66.98
2023-12-18T15:59:32.819Z,67.17
2023-12-18T16:04:35.076Z,67.15
2023-12-18T16:09:37.773Z,67.22
2023-12-18T16:14:40.025Z,66.55
2023-12-18T16:19:42.520Z,67.48
2023-12-18T16:24:44.892Z,67.38
2023-12-18T16:29:47.132Z,67.65
2023-12-18T16:34:49.632Z,67.28
2023-12-18T16:39:55.349Z,67.42
2023-12-18T16:44:58.557Z,67.34
2023-12-18T16:50:00.805Z,67.77
2023-12-18T16:55:03.610Z,67.00
2023-12-18T17:00:13.201Z,66.87
2023-12-18T17:05:16.428Z,67.37
2023-12-18T17:10:18.652Z,67.25
2023-12-18T17:15:22.217Z,66.82
2023-12-18T17:20:25.342Z,66.87
2023-12-18T17:25:27.978Z,66.90
2023-12-18T17:30:30.534Z,67.04
2023-12-18T17:35:33.026Z,67.07
2023-12-18T17:40:36.042Z,67.64
2023-12-18T17:45:38.299Z,67.33
2023-12-18T17:50:40.505Z,67.60
2023-12-18T17:55:42.860Z,67.63
2023-12-18T18:00:45.145Z,67.42
2023-12-18T18:05:47.440Z,68.10
2023-12-18T18:10:49.726Z,67.66
2023-12-18T18:15:54.501Z,68.37
2023-12-18T18:20:56.841Z,68.39
2023-12-18T18:25:59.137Z,68.95
2023-12-18T18:31:04.762Z,68.81
2023-12-18T18:36:08.601Z,69.89
2023-12-18T18:41:10.977Z,70.23
2023-12-18T18:46:14.366Z,70.06
2023-12-18T18:51:16.694Z,70.31
2023-12-18T18:56:19.423Z,70.14
2023-12-18T19:01:22.225Z,70.16
2023-12-18T19:06:24.561Z,69.87
2023-12-18T19:11:27.020Z,69.43
2023-12-18T19:16:29.413Z,69.63
2023-12-18T19:21:31.653Z,69.80
2023-12-18T19:26:33.900Z,69.70
2023-12-18T19:31:48.523Z,69.76
2023-12-18T19:36:50.895Z,69.68
2023-12-18T19:41:54.116Z,69.63
2023-12-18T19:46:56.549Z,69.27
2023-12-18T19:51:58.842Z,69.33
2023-12-18T19:57:01.117Z,69.52
2023-12-18T20:02:05.031Z,69.31
2023-12-18T20:07:07.299Z,69.79
2023-12-18T20:12:09.509Z,69.79
2023-12-18T20:17:11.699Z,69.67
2023-12-18T20:22:14.026Z,70.26
2023-12-18T20:27:16.646Z,70.44
2023-12-18T20:32:19.104Z,70.72
2023-12-18T20:37:21.495Z,70.13
2023-12-18T20:42:23.720Z,70.53
2023-12-18T20:47:25.882Z,70.70
2023-12-18T20:52:28.164Z,70.27
2023-12-18T20:57:30.937Z,70.54
2023-12-18T21:02:33.129Z,70.50
2023-12-18T21:07:35.338Z,70.83
2023-12-18T21:12:37.594Z,70.34
2023-12-18T21:17:39.910Z,70.62
2023-12-18T21:22:42.485Z,70.46
2023-12-18T21:27:45.440Z,70.54
2023-12-18T21:32:48.793Z,70.52
2023-12-18T21:37:51.058Z,70.54
2023-12-18T21:42:53.308Z,70.14
2023-12-18T21:47:55.778Z,70.44
2023-12-18T21:52:58.058Z,70.81
2023-12-18T21:58:00.745Z,70.80
2023-12-18T22:03:03.119Z,70.91
2023-12-18T22:08:06.718Z,70.66
2023-12-18T22:13:09.081Z,70.67
2023-12-18T22:18:11.559Z,70.86
2023-12-18T22:23:14.054Z,71.07
2023-12-18T22:28:16.845Z,71.24
2023-12-18T22:33:19.293Z,71.00
2023-12-18T22:38:22.200Z,70.77
2023-12-18T22:43:25.326Z,70.59
2023-12-18T22:48:27.710Z,70.82
2023-12-18T22:53:30.127Z,70.83
2023-12-18T22:58:32.437Z,70.16
2023-12-18T23:03:34.669Z,70.11
2023-12-18T23:08:36.899Z,69.85
2023-12-18T23:13:39.054Z,69.43
2023-12-18T23:18:41.319Z,69.72
2023-12-18T23:23:43.627Z,69.88
2023-12-18T23:28:45.770Z,69.78
2023-12-18T23:33:48.754Z,69.72
2023-12-18T23:38:51.200Z,69.88
2023-12-18T23:43:53.409Z,70.00
2023-12-18T23:48:55.844Z,69.66
2023-12-18T23:53:58.091Z,69.98
2023-12-18T23:59:00.339Z,70.18
